createdAt,value
2018-12-21T00:02:21.056Z,0.51
2018-12-21T00:04:51.078Z,0.54
2018-12-21T00:07:21.085Z,0.51
2018-12-21T00:09:51.193Z,0.56
2018-12-21T00:12:21.192Z,0.50
2018-12-21T00:14:51.197Z,0.55
2018-12-21T00:17:21.253Z,0.63
2018-12-21T00:19:51.286Z,0.63
2018-12-21T00:22:21.355Z,0.63
2018-12-21T00:24:51.344Z,0.74
2018-12-21T00:27:21.632Z,0.79
2018-12-21T00:29:51.644Z,0.80
2018-12-21T00:32:26.994Z,0.86
2018-12-21T00:35:02.356Z,0.87
2018-12-21T00:37:37.828Z,0.88
2018-12-21T00:40:13.308Z,0.93
2018-12-21T00:42:51.729Z,0.95
2018-12-21T00:45:26.974Z,0.96
2018-12-21T00:47:57.107Z,1.00
2018-12-21T00:50:27.589Z,0.95
2018-12-21T00:52:58.000Z,0.91
2018-12-21T00:55:28.126Z,0.84
2018-12-21T00:57:58.150Z,0.84
2018-12-21T01:00:28.292Z,0.83
2018-12-21T01:02:58.305Z,0.77
2018-12-21T01:05:28.362Z,0.74
2018-12-21T01:07:58.473Z,0.73
2018-12-21T01:10:28.514Z,0.82
2018-12-21T01:13:20.186Z,0.75
2018-12-21T01:15:50.314Z,0.72
2018-12-21T01:18:24.016Z,0.70
2018-12-21T01:20:54.672Z,0.69
2018-12-21T01:23:27.376Z,0.66
2018-12-21T01:25:57.490Z,0.77
2018-12-21T01:28:28.650Z,0.74
2018-12-21T01:30:59.473Z,0.65
2018-12-21T01:33:33.275Z,0.81
2018-12-21T01:36:03.990Z,0.80
2018-12-21T01:38:34.670Z,0.76
2018-12-21T01:41:05.465Z,0.95
2018-12-21T01:43:35.604Z,0.87
2018-12-21T01:46:05.620Z,0.86
2018-12-21T01:48:36.533Z,0.94
2018-12-21T01:51:08.151Z,0.86
2018-12-21T01:53:38.792Z,0.87
2018-12-21T01:56:09.339Z,0.82
2018-12-21T01:58:40.093Z,0.85
2018-12-21T02:01:13.461Z,0.84
2018-12-21T02:03:44.836Z,0.82
2018-12-21T02:06:18.615Z,0.90
2018-12-21T02:08:50.927Z,0.84
2018-12-21T02:11:22.719Z,0.80
2018-12-21T02:13:53.798Z,1.01
2018-12-21T02:16:29.045Z,1.31
2018-12-21T02:18:59.444Z,1.18
2018-12-21T02:21:32.084Z,1.12
2018-12-21T02:24:02.505Z,1.11
2018-12-21T02:26:33.021Z,1.25
2018-12-21T02:29:03.732Z,1.17
2018-12-21T02:31:33.801Z,1.23
2018-12-21T02:34:04.713Z,1.19
2018-12-21T02:36:34.731Z,1.18
2018-12-21T02:39:07.052Z,1.19
2018-12-21T02:41:39.834Z,1.22
2018-12-21T02:44:09.844Z,1.02
2018-12-21T02:46:40.839Z,0.97
2018-12-21T02:49:11.922Z,0.90
2018-12-21T02:51:44.893Z,0.96
2018-12-21T02:54:22.140Z,0.86
2018-12-21T02:56:54.876Z,0.79
2018-12-21T02:59:25.806Z,0.78
2018-12-21T03:01:57.876Z,0.70
2018-12-21T03:04:34.892Z,0.66
2018-12-21T03:07:05.203Z,0.65
2018-12-21T03:09:38.131Z,0.63
2018-12-21T03:12:08.945Z,0.58
2018-12-21T03:14:38.969Z,0.69
2018-12-21T03:17:10.312Z,0.65
2018-12-21T03:19:41.001Z,0.61
2018-12-21T03:22:15.119Z,0.61
2018-12-21T03:24:48.169Z,0.56
2018-12-21T03:27:18.993Z,0.50
2018-12-21T03:29:49.026Z,0.48
2018-12-21T03:32:19.831Z,0.48
2018-12-21T03:34:50.332Z,0.48
2018-12-21T03:37:20.919Z,0.51
2018-12-21T03:39:51.131Z,0.48
2018-12-21T03:42:30.652Z,0.51
2018-12-21T03:45:04.288Z,0.54
2018-12-21T03:47:37.905Z,0.53
2018-12-21T03:50:08.842Z,0.54
2018-12-21T03:52:39.385Z,0.60
2018-12-21T03:55:09.904Z,0.55
2018-12-21T03:57:40.136Z,0.50
2018-12-21T04:00:11.346Z,0.54
2018-12-21T04:02:41.886Z,0.48
2018-12-21T04:05:12.218Z,0.46
2018-12-21T04:07:43.106Z,0.42
2018-12-21T04:10:19.982Z,0.42
2018-12-21T04:12:50.063Z,0.40
2018-12-21T04:15:21.339Z,0.39
2018-12-21T04:17:51.380Z,0.40
2018-12-21T04:20:28.270Z,0.41
2018-12-21T04:22:59.288Z,0.41
2018-12-21T04:25:30.289Z,0.40
2018-12-21T04:28:00.289Z,0.42
2018-12-21T04:30:34.871Z,0.42
2018-12-21T04:33:12.253Z,0.42
2018-12-21T04:35:42.275Z,0.39
2018-12-21T04:38:13.294Z,0.35
2018-12-21T04:40:43.385Z,0.32
2018-12-21T04:43:14.496Z,0.31
2018-12-21T04:45:50.172Z,0.32
2018-12-21T04:48:22.343Z,0.28
2018-12-21T04:50:52.750Z,0.29
2018-12-21T04:53:22.826Z,0.28
2018-12-21T04:55:59.041Z,0.22
2018-12-21T04:58:29.492Z,0.24
2018-12-21T05:00:59.542Z,0.26
2018-12-21T05:03:31.481Z,0.26
2018-12-21T05:06:03.350Z,0.24
2018-12-21T05:08:33.721Z,0.23
2018-12-21T05:11:09.756Z,0.21
2018-12-21T05:13:42.403Z,0.22
2018-12-21T05:16:13.527Z,0.17
2018-12-21T05:18:47.449Z,0.19
2018-12-21T05:21:21.145Z,0.21
2018-12-21T05:23:51.747Z,0.21
2018-12-21T05:26:22.462Z,0.21
2018-12-21T05:28:53.579Z,0.22
2018-12-21T05:31:30.687Z,0.25
2018-12-21T05:34:03.442Z,0.22
2018-12-21T05:36:35.657Z,0.21
2018-12-21T05:39:07.042Z,0.19
2018-12-21T05:41:39.692Z,0.22
2018-12-21T05:44:10.437Z,0.22
2018-12-21T05:46:40.960Z,0.23
2018-12-21T05:49:11.674Z,0.22
2018-12-21T05:51:41.698Z,0.23
2018-12-21T05:54:12.714Z,0.26
2018-12-21T05:56:43.281Z,0.25
2018-12-21T05:59:14.058Z,0.26
2018-12-21T06:01:44.556Z,0.26
2018-12-21T06:04:14.612Z,0.26
2018-12-21T06:06:45.688Z,0.28
2018-12-21T06:09:19.531Z,0.27
2018-12-21T06:11:49.582Z,0.27
2018-12-21T06:14:20.790Z,0.28
2018-12-21T06:16:51.805Z,0.29
2018-12-21T06:19:22.833Z,0.28
2018-12-21T06:21:55.948Z,0.30
2018-12-21T06:24:26.831Z,0.30
2018-12-21T06:26:57.769Z,0.30
2018-12-21T06:29:28.745Z,0.29
2018-12-21T06:31:58.966Z,0.26
2018-12-21T06:34:33.782Z,0.24
2018-12-21T06:37:05.768Z,0.21
2018-12-21T06:39:37.816Z,0.19
2018-12-21T06:42:11.693Z,0.19
2018-12-21T06:44:41.892Z,0.20
2018-12-21T06:47:11.989Z,0.24
2018-12-21T06:49:42.908Z,0.16
2018-12-21T06:52:13.997Z,0.16
2018-12-21T06:54:44.630Z,0.14
2018-12-21T06:57:14.914Z,0.17
2018-12-21T06:59:51.832Z,0.20
2018-12-21T07:02:23.794Z,0.23
2018-12-21T07:04:59.482Z,0.20
2018-12-21T07:07:30.066Z,0.22
2018-12-21T07:10:00.250Z,0.23
2018-12-21T07:12:31.010Z,0.26
2018-12-21T07:15:02.981Z,0.26
2018-12-21T07:17:33.078Z,0.31
2018-12-21T07:20:07.055Z,0.27
2018-12-21T07:22:38.024Z,0.33
2018-12-21T07:25:09.116Z,0.32
2018-12-21T07:27:39.153Z,0.34
2018-12-21T07:30:11.490Z,0.32
2018-12-21T07:32:43.208Z,0.31
2018-12-21T07:35:16.318Z,0.30
2018-12-21T07:37:48.167Z,0.32
2018-12-21T07:40:22.341Z,0.34
2018-12-21T07:42:58.882Z,0.37
2018-12-21T07:45:29.721Z,0.37
2018-12-21T07:47:59.755Z,0.38
2018-12-21T07:50:30.221Z,0.40
2018-12-21T07:53:01.106Z,0.41
2018-12-21T07:55:31.180Z,0.41
2018-12-21T07:58:02.344Z,0.42
2018-12-21T08:00:32.493Z,0.43
2018-12-21T08:03:03.649Z,0.42
2018-12-21T08:05:34.152Z,0.45
2018-12-21T08:08:05.048Z,0.46
2018-12-21T08:10:38.013Z,0.46
2018-12-21T08:13:09.829Z,0.48
2018-12-21T08:15:40.432Z,0.50
2018-12-21T08:18:13.256Z,0.52
2018-12-21T08:20:44.285Z,0.53
2018-12-21T08:23:15.515Z,0.55
2018-12-21T08:25:54.193Z,0.56
2018-12-21T08:28:25.971Z,0.59
2018-12-21T08:30:56.377Z,0.63
2018-12-21T08:33:33.234Z,0.68
2018-12-21T08:36:03.338Z,0.72
2018-12-21T08:38:34.275Z,0.75
2018-12-21T08:44:07.047Z,0.83
2018-12-21T08:49:38.271Z,0.87
2018-12-21T08:52:08.383Z,0.94
2018-12-21T08:54:39.550Z,0.99
2018-12-21T08:57:15.209Z,1.01
2018-12-21T08:59:46.367Z,1.08
2018-12-21T09:02:17.366Z,1.12
2018-12-21T09:04:57.223Z,1.15
2018-12-21T09:07:28.284Z,1.20
2018-12-21T09:10:00.063Z,1.22
2018-12-21T09:12:32.669Z,1.20
2018-12-21T09:15:05.069Z,1.26
2018-12-21T09:17:35.562Z,1.34
2018-12-21T09:20:15.361Z,1.39
2018-12-21T09:22:45.421Z,1.50
2018-12-21T09:25:16.565Z,1.48
2018-12-21T09:27:49.552Z,1.55
2018-12-21T09:30:20.604Z,1.58
2018-12-21T09:32:51.773Z,1.60
2018-12-21T09:35:22.536Z,1.66
2018-12-21T09:37:56.053Z,1.65
2018-12-21T09:40:26.504Z,1.69
2018-12-21T09:42:57.960Z,1.73
2018-12-21T09:45:28.784Z,1.84
2018-12-21T09:47:59.740Z,1.88
2018-12-21T09:50:33.641Z,1.86
2018-12-21T09:53:04.674Z,1.84
2018-12-21T09:55:35.144Z,1.89
2018-12-21T09:58:06.957Z,1.90
2018-12-21T10:00:38.841Z,2.01
2018-12-21T10:03:12.646Z,2.02
2018-12-21T10:05:43.680Z,2.05
2018-12-21T10:08:13.751Z,2.04
2018-12-21T10:10:50.757Z,2.15
2018-12-21T10:13:22.679Z,2.27
2018-12-21T10:15:59.854Z,2.27
2018-12-21T10:18:33.675Z,2.32
2018-12-21T10:21:03.804Z,2.33
2018-12-21T10:23:40.677Z,2.35
2018-12-21T10:26:12.248Z,2.36
2018-12-21T10:28:42.832Z,2.39
2018-12-21T10:31:13.322Z,2.38
2018-12-21T10:33:44.061Z,2.38
2018-12-21T10:36:14.585Z,2.37
2018-12-21T10:38:45.097Z,2.38
2018-12-21T10:41:15.897Z,2.38
2018-12-21T10:43:46.576Z,2.34
2018-12-21T10:46:17.036Z,2.35
2018-12-21T10:48:47.752Z,2.33
2018-12-21T10:51:17.761Z,2.32
2018-12-21T10:53:48.943Z,2.39
2018-12-21T10:56:22.713Z,2.51
2018-12-21T10:58:53.025Z,2.51
2018-12-21T11:01:23.872Z,2.55
2018-12-21T11:03:59.747Z,2.50
2018-12-21T11:06:32.061Z,2.47
2018-12-21T11:09:05.770Z,2.43
2018-12-21T11:11:36.172Z,2.39
2018-12-21T11:14:11.910Z,2.37
2018-12-21T11:16:43.091Z,2.36
2018-12-21T11:19:18.821Z,2.37
2018-12-21T11:21:50.083Z,2.40
2018-12-21T11:24:22.954Z,2.41
2018-12-21T11:26:54.115Z,2.39
2018-12-21T11:29:27.113Z,2.39
2018-12-21T11:32:00.260Z,2.43
2018-12-21T11:34:30.553Z,2.45
2018-12-21T11:37:00.589Z,2.47
2018-12-21T11:39:34.300Z,2.56
2018-12-21T11:42:08.909Z,2.59
2018-12-21T11:44:41.129Z,2.59
2018-12-21T11:47:16.010Z,2.64
2018-12-21T11:49:47.383Z,2.76
2018-12-21T11:52:18.050Z,2.73
2018-12-21T11:54:48.249Z,2.77
2018-12-21T11:57:19.085Z,2.80
2018-12-21T11:59:50.286Z,2.91
2018-12-21T12:02:26.485Z,2.99
2018-12-21T12:04:57.192Z,3.13
2018-12-21T12:07:28.261Z,3.15
2018-12-21T12:10:03.229Z,3.31
2018-12-21T12:12:35.165Z,3.49
2018-12-21T12:15:06.725Z,3.70
2018-12-21T12:17:37.315Z,3.79
2018-12-21T12:20:09.441Z,3.83
2018-12-21T12:22:41.406Z,3.86
2018-12-21T12:25:12.346Z,3.90
2018-12-21T12:27:42.672Z,3.94
2018-12-21T12:30:13.298Z,3.90
2018-12-21T12:32:43.393Z,3.97
2018-12-21T12:35:14.400Z,4.00
2018-12-21T12:37:45.121Z,3.97
2018-12-21T12:40:15.325Z,4.04
2018-12-21T12:42:46.808Z,4.10
2018-12-21T12:45:16.847Z,4.20
2018-12-21T12:47:47.528Z,4.18
2018-12-21T12:50:18.107Z,4.16
2018-12-21T12:52:48.434Z,4.09
2018-12-21T12:55:22.249Z,4.03
2018-12-21T12:57:52.362Z,3.96
2018-12-21T13:00:23.588Z,3.93
2018-12-21T13:02:57.399Z,3.87
2018-12-21T13:05:28.412Z,3.84
2018-12-21T13:07:59.385Z,3.80
2018-12-21T13:10:29.889Z,3.73
2018-12-21T13:13:00.801Z,3.77
2018-12-21T13:15:33.893Z,3.79
2018-12-21T13:18:07.692Z,3.75
2018-12-21T13:20:41.356Z,3.80
2018-12-21T13:23:12.457Z,3.83
2018-12-21T13:25:46.432Z,3.84
2018-12-21T13:28:16.566Z,3.82
2018-12-21T13:30:47.498Z,3.75
2018-12-21T13:36:17.537Z,3.56
2018-12-21T13:38:49.677Z,3.53
2018-12-21T13:41:22.681Z,3.40
2018-12-21T13:43:54.217Z,3.39
2018-12-21T13:46:26.766Z,3.31
2018-12-21T13:48:57.640Z,3.30
2018-12-21T13:51:29.304Z,3.23
2018-12-21T13:54:00.300Z,3.22
2018-12-21T13:56:32.725Z,3.21
2018-12-21T13:59:03.657Z,3.28
2018-12-21T14:01:33.725Z,3.19
2018-12-21T14:07:04.134Z,3.04
2018-12-21T14:09:35.807Z,2.97
2018-12-21T14:12:06.757Z,2.95
2018-12-21T14:14:37.993Z,2.94
2018-12-21T14:17:10.080Z,3.03
2018-12-21T14:19:41.688Z,3.01
2018-12-21T14:22:13.178Z,3.10
2018-12-21T14:24:43.489Z,3.17
2018-12-21T14:27:19.739Z,3.19
2018-12-21T14:29:50.797Z,3.24
2018-12-21T14:32:21.949Z,3.18
2018-12-21T14:35:00.295Z,3.22
2018-12-21T14:37:32.112Z,3.16
2018-12-21T14:40:08.738Z,3.11
2018-12-21T14:42:38.784Z,3.01
2018-12-21T14:45:10.084Z,2.94
2018-12-21T14:47:41.505Z,2.91
2018-12-21T14:50:15.110Z,2.83
2018-12-21T14:52:50.962Z,2.77
2018-12-21T14:55:21.139Z,2.70
2018-12-21T14:57:54.803Z,2.62
2018-12-21T15:00:25.937Z,2.66
2018-12-21T15:02:56.517Z,2.77
2018-12-21T15:05:27.871Z,2.85
2018-12-21T15:08:00.828Z,2.93
2018-12-21T15:10:31.401Z,2.88
2018-12-21T15:13:04.169Z,2.84
2018-12-21T15:15:38.933Z,2.73
2018-12-21T15:18:10.977Z,2.67
2018-12-21T15:20:43.273Z,2.65
2018-12-21T15:23:14.149Z,2.70
2018-12-21T15:25:46.122Z,2.69
2018-12-21T15:28:18.082Z,2.69
2018-12-21T15:30:49.300Z,2.72
2018-12-21T15:33:20.237Z,2.66
2018-12-21T15:35:51.196Z,2.56
2018-12-21T15:38:21.261Z,2.49
2018-12-21T15:40:52.185Z,2.49
2018-12-21T15:43:23.216Z,2.48
2018-12-21T15:45:56.110Z,2.43
2018-12-21T15:48:27.230Z,2.46
2018-12-21T15:50:58.696Z,2.52
2018-12-21T15:53:31.195Z,2.61
2018-12-21T15:56:01.259Z,2.68
2018-12-21T15:58:31.289Z,2.76
2018-12-21T16:01:01.374Z,2.71
2018-12-21T16:03:33.217Z,2.74
2018-12-21T16:06:04.417Z,2.79
2018-12-21T16:08:40.885Z,2.72
2018-12-21T16:11:17.142Z,2.68
2018-12-21T16:13:48.273Z,2.76
2018-12-21T16:16:19.392Z,2.86
2018-12-21T16:18:52.437Z,2.86
2018-12-21T16:21:23.329Z,2.95
2018-12-21T16:23:54.406Z,3.03
2018-12-21T16:26:24.438Z,3.15
2018-12-21T16:28:58.365Z,3.31
2018-12-21T16:31:29.302Z,3.40
2018-12-21T16:34:00.512Z,3.52
2018-12-21T16:36:40.470Z,3.56
2018-12-21T16:39:16.594Z,3.51
2018-12-21T16:41:47.470Z,3.64
2018-12-21T16:44:18.431Z,3.65
2018-12-21T16:46:58.336Z,3.82
2018-12-21T16:49:28.408Z,3.79
2018-12-21T16:52:00.385Z,3.86
2018-12-21T16:54:32.475Z,3.86
2018-12-21T16:57:03.770Z,3.88
2018-12-21T16:59:34.589Z,3.91
2018-12-21T17:02:10.665Z,3.83
2018-12-21T17:04:42.400Z,3.84
2018-12-21T17:07:21.388Z,3.93
2018-12-21T17:09:52.593Z,3.97
2018-12-21T17:12:24.606Z,3.96
2018-12-21T17:14:58.763Z,4.14
2018-12-21T17:17:29.503Z,4.17
2018-12-21T17:19:59.557Z,4.14
2018-12-21T17:22:30.426Z,4.14
2018-12-21T17:25:00.589Z,4.04
2018-12-21T17:27:31.590Z,4.24
2018-12-21T17:30:02.397Z,4.26
2018-12-21T17:32:32.850Z,4.15
2018-12-21T17:38:04.241Z,4.40
2018-12-21T17:40:35.796Z,4.31
2018-12-21T17:43:06.234Z,4.38
2018-12-21T17:45:36.773Z,4.31
2018-12-21T17:48:09.246Z,4.38
2018-12-21T17:50:43.555Z,4.47
2018-12-21T17:53:14.740Z,4.40
2018-12-21T17:55:45.940Z,4.56
2018-12-21T17:58:19.746Z,4.60
2018-12-21T18:00:50.092Z,4.57
2018-12-21T18:03:30.276Z,4.56
2018-12-21T18:06:00.595Z,4.85
2018-12-21T18:08:30.723Z,4.91
2018-12-21T18:11:01.195Z,4.79
2018-12-21T18:13:31.836Z,4.78
2018-12-21T18:16:03.861Z,4.64
2018-12-21T18:18:36.073Z,4.70
2018-12-21T18:21:06.849Z,4.59
2018-12-21T18:23:40.782Z,4.54
2018-12-21T18:26:10.798Z,4.63
2018-12-21T18:28:40.945Z,4.69
2018-12-21T18:31:25.064Z,4.63
2018-12-21T18:33:58.017Z,4.56
2018-12-21T18:36:33.692Z,4.63
2018-12-21T18:39:04.805Z,4.57
2018-12-21T18:41:34.947Z,4.56
2018-12-21T18:47:06.477Z,4.73
2018-12-21T18:49:40.687Z,4.61
2018-12-21T18:52:11.111Z,4.62
2018-12-21T18:54:42.331Z,4.59
2018-12-21T18:57:16.308Z,4.54
2018-12-21T18:59:49.110Z,4.62
2018-12-21T19:02:20.886Z,4.60
2018-12-21T19:04:55.296Z,4.57
2018-12-21T19:07:28.028Z,4.53
2018-12-21T19:09:59.005Z,4.55
2018-12-21T19:12:29.027Z,4.57
2018-12-21T19:14:59.977Z,4.58
2018-12-21T19:17:30.898Z,4.61
2018-12-21T19:20:01.138Z,4.61
2018-12-21T19:22:32.036Z,4.72
2018-12-21T19:28:03.092Z,4.72
2018-12-21T19:30:34.775Z,4.68
2018-12-21T19:33:05.546Z,4.59
2018-12-21T19:35:38.204Z,4.41
2018-12-21T19:38:11.421Z,4.69
2018-12-21T19:40:45.107Z,4.69
2018-12-21T19:43:16.241Z,4.69
2018-12-21T19:45:47.182Z,4.68
2018-12-21T19:48:20.184Z,4.75
2018-12-21T19:50:51.127Z,4.96
2018-12-21T19:53:22.258Z,4.99
2018-12-21T19:55:58.508Z,4.99
2018-12-21T19:58:29.375Z,4.97
2018-12-21T20:01:00.366Z,5.04
2018-12-21T20:03:31.211Z,5.20
2018-12-21T20:06:01.465Z,5.15
2018-12-21T20:08:33.322Z,5.23
2018-12-21T20:11:04.611Z,5.25
2018-12-21T20:13:40.367Z,5.25
2018-12-21T20:16:11.664Z,5.27
2018-12-21T20:18:44.273Z,5.25
2018-12-21T20:21:15.332Z,5.50
2018-12-21T20:24:04.895Z,5.40
2018-12-21T20:26:35.742Z,5.70
2018-12-21T20:29:08.428Z,5.95
2018-12-21T20:31:41.493Z,5.99
2018-12-21T20:34:15.678Z,5.87
2018-12-21T20:36:49.273Z,5.81
2018-12-21T20:39:22.509Z,5.72
2018-12-21T20:41:56.742Z,5.89
2018-12-21T20:44:26.799Z,5.95
2018-12-21T20:46:59.136Z,6.11
2018-12-21T20:49:31.694Z,6.09
2018-12-21T20:52:01.756Z,6.35
2018-12-21T20:54:39.283Z,6.47
2018-12-21T20:57:12.913Z,6.72
2018-12-21T20:59:44.156Z,6.71
2018-12-21T21:02:20.758Z,6.82
2018-12-21T21:04:59.724Z,6.81
2018-12-21T21:07:33.437Z,6.97
2018-12-21T21:10:05.495Z,6.94
2018-12-21T21:12:35.511Z,7.13
2018-12-21T21:15:07.384Z,7.12
2018-12-21T21:17:39.644Z,7.10
2018-12-21T21:20:13.028Z,7.03
2018-12-21T21:22:44.608Z,6.93
2018-12-21T21:25:16.773Z,6.96
2018-12-21T21:27:47.621Z,6.91
2018-12-21T21:30:19.453Z,6.95
2018-12-21T21:32:49.615Z,7.15
2018-12-21T21:35:19.712Z,7.10
2018-12-21T21:37:49.722Z,6.97
2018-12-21T21:43:24.160Z,6.90
2018-12-21T21:45:55.768Z,7.02
2018-12-21T21:48:25.769Z,6.93
2018-12-21T21:50:59.505Z,6.92
2018-12-21T21:53:48.998Z,7.21
2018-12-21T21:56:21.725Z,7.28
2018-12-21T21:58:52.849Z,7.24
2018-12-21T22:01:23.837Z,7.16
2018-12-21T22:03:57.629Z,7.10
2018-12-21T22:06:27.697Z,7.10
2018-12-21T22:08:59.194Z,7.14
2018-12-21T22:11:29.834Z,7.20
2018-12-21T22:14:00.882Z,7.08
2018-12-21T22:16:33.805Z,7.27
2018-12-21T22:19:04.917Z,7.13
2018-12-21T22:21:35.887Z,7.14
2018-12-21T22:24:09.661Z,7.01
2018-12-21T22:26:41.203Z,7.16
2018-12-21T22:29:19.980Z,7.28
2018-12-21T22:31:52.965Z,7.39
2018-12-21T22:34:30.533Z,7.47
2018-12-21T22:37:00.998Z,7.54
2018-12-21T22:39:31.135Z,7.51
2018-12-21T22:42:01.362Z,7.43
2018-12-21T22:44:32.114Z,7.38
2018-12-21T22:47:09.820Z,7.31
2018-12-21T22:49:42.019Z,7.48
2018-12-21T22:52:12.981Z,7.43
2018-12-21T22:54:47.499Z,7.40
2018-12-21T22:57:20.084Z,7.36
2018-12-21T22:59:51.153Z,7.49
2018-12-21T23:02:22.964Z,7.50
2018-12-21T23:04:58.984Z,7.53
2018-12-21T23:07:29.005Z,7.58
2018-12-21T23:09:59.988Z,7.60
2018-12-21T23:12:30.124Z,7.64
2018-12-21T23:15:04.591Z,7.80
2018-12-21T23:17:35.474Z,7.72
2018-12-21T23:20:06.495Z,7.95
2018-12-21T23:22:37.106Z,7.79
2018-12-21T23:25:07.582Z,7.79
2018-12-21T23:27:40.949Z,7.90
2018-12-21T23:30:12.409Z,7.82
2018-12-21T23:32:43.131Z,7.72
2018-12-21T23:35:13.173Z,7.75
2018-12-21T23:37:44.198Z,7.87
2018-12-21T23:40:15.408Z,8.07
2018-12-21T23:42:48.295Z,8.06
2018-12-21T23:45:21.225Z,8.09
2018-12-21T23:47:52.561Z,8.13
2018-12-21T23:50:25.317Z,8.18
2018-12-21T23:52:56.230Z,8.20
2018-12-21T23:55:27.253Z,8.16
2018-12-21T23:58:00.233Z,8.13
